Billings, Montana
Current Conditions -  °F | °C
As of 3:53 AM on Thursday 18 Dec 2014 (Local Time) from KBIL Reporting Station
Clear Clear  
Wind Chill:   Ceiling: Unl
Heat Index: 23°   Visibility: 10mi
Dew Point: 18°   Wind: 17mph
Humidity: 81%   Direction: 230°SW
Pressure: 29.94"   Gusts: NA
Location:  45.78°N, 108.5°W
Report Text: KBIL 181053Z 23015KT 10SM CLR M05/M08 A2994 RMK AO2 SLP174 T10501078
Loading
Personal Weather Stations






























Interactive Weather Map New forecast layout! Learn more

10-Day Weather Forecast

Advertisements
Track Severe Weather on mobile